Time;durP1;ratioP1;P1;durP2;ratioP2;P2;SDS_P1;SDS_P2;PMS_P1;PMS_P2;Temp;Humidity;BMP_temperature;BMP_pressure;BME280_temperature;BME280_humidity;BME280_pressure;Samples;Min_cycle;Max_cycle;Signal;HPM_P1;HPM_P2
2023/12/15 00:04:46;;;;;;;7.45;3.30;;;9.00;99.90;;;;;;10180576;28;20126;-66
2023/12/15 00:09:37;;;;;;;5.82;3.78;;;9.10;99.90;;;;;;10165642;28;20020;-69
2023/12/15 00:14:28;;;;;;;7.65;3.65;;;9.10;99.90;;;;;;10174200;28;20111;-66
2023/12/15 00:19:19;;;;;;;6.57;3.63;;;9.10;99.90;;;;;;10168587;28;20107;-67
2023/12/15 00:24:10;;;;;;;8.52;4.45;;;9.10;99.90;;;;;;10165295;28;20067;-67
2023/12/15 00:29:03;;;;;;;6.93;3.70;;;9.00;99.90;;;;;;10168577;28;20055;-69
2023/12/15 00:33:54;;;;;;;6.78;4.90;;;9.00;99.90;;;;;;10171643;28;20043;-70
2023/12/15 00:38:45;;;;;;;7.18;4.00;;;9.10;99.90;;;;;;10169176;28;20051;-68
2023/12/15 00:43:35;;;;;;;6.85;3.30;;;9.10;99.90;;;;;;10167137;28;20289;-66
2023/12/15 00:48:26;;;;;;;8.40;3.72;;;9.10;99.90;;;;;;10165371;28;20024;-67
2023/12/15 00:53:17;;;;;;;7.53;3.45;;;9.00;99.90;;;;;;10171348;28;20020;-69
2023/12/15 00:58:08;;;;;;;5.03;3.25;;;9.00;99.90;;;;;;10166190;28;20480;-68
2023/12/15 01:02:58;;;;;;;6.40;3.67;;;9.00;99.90;;;;;;10165040;28;20526;-69
2023/12/15 01:07:49;;;;;;;6.05;3.75;;;9.00;99.90;;;;;;10172765;28;20035;-69
2023/12/15 01:12:40;;;;;;;5.45;2.95;;;9.00;99.90;;;;;;10169414;28;20048;-67
2023/12/15 01:17:31;;;;;;;7.65;3.63;;;9.10;99.90;;;;;;10169180;28;20028;-69
2023/12/15 01:22:22;;;;;;;5.47;3.10;;;9.00;99.90;;;;;;10148616;28;20039;-69
2023/12/15 01:27:12;;;;;;;5.93;3.45;;;9.00;99.90;;;;;;10163845;28;20513;-68
2023/12/15 01:32:03;;;;;;;5.07;3.40;;;9.00;99.90;;;;;;10151402;28;20145;-68
2023/12/15 01:36:54;;;;;;;4.65;3.45;;;9.00;99.90;;;;;;10168653;28;20047;-70
2023/12/15 01:41:44;;;;;;;6.47;3.47;;;9.00;99.90;;;;;;10167294;28;20082;-69
2023/12/15 01:46:35;;;;;;;6.15;3.70;;;9.00;99.90;;;;;;10149882;28;20051;-67
2023/12/15 01:51:26;;;;;;;7.32;4.05;;;9.00;99.90;;;;;;10165383;28;20047;-67
2023/12/15 01:56:17;;;;;;;8.50;3.70;;;9.00;99.90;;;;;;10163458;28;20028;-67
2023/12/15 02:01:08;;;;;;;7.15;3.97;;;9.00;99.90;;;;;;10163290;28;20036;-68
2023/12/15 02:05:59;;;;;;;7.63;3.92;;;9.00;99.90;;;;;;10164809;28;20114;-67
2023/12/15 02:10:49;;;;;;;9.57;3.63;;;9.00;99.90;;;;;;10160386;28;20146;-67
2023/12/15 02:15:40;;;;;;;7.07;4.00;;;9.00;99.90;;;;;;10162466;28;20035;-67
2023/12/15 02:20:31;;;;;;;7.03;3.85;;;9.00;99.90;;;;;;10168701;28;20043;-67
2023/12/15 02:25:21;;;;;;;5.97;3.58;;;9.00;99.90;;;;;;10160355;28;20115;-66
2023/12/15 02:30:12;;;;;;;7.28;4.35;;;9.00;99.90;;;;;;10160746;28;20044;-67
2023/12/15 02:35:03;;;;;;;7.35;3.40;;;9.00;99.90;;;;;;10163599;28;20024;-67
2023/12/15 02:39:54;;;;;;;7.00;3.50;;;8.90;99.90;;;;;;10159799;28;20032;-67
2023/12/15 02:44:46;;;;;;;5.03;3.15;;;8.90;99.90;;;;;;10161521;28;20036;-68
2023/12/15 02:49:39;;;;;;;6.40;3.38;;;8.90;99.90;;;;;;10146949;28;20064;-67
2023/12/15 02:54:30;;;;;;;6.15;3.10;;;8.90;99.90;;;;;;10161442;28;20055;-66
2023/12/15 02:59:21;;;;;;;6.15;3.25;;;8.90;99.90;;;;;;10165694;28;20033;-67
2023/12/15 03:04:11;;;;;;;5.28;2.92;;;8.90;99.90;;;;;;10162994;28;20092;-68
2023/12/15 03:09:02;;;;;;;6.60;3.65;;;8.90;99.90;;;;;;10159584;28;20028;-67
2023/12/15 03:13:53;;;;;;;5.95;2.90;;;8.90;99.90;;;;;;10157954;28;20032;-68
2023/12/15 03:18:43;;;;;;;6.07;3.42;;;8.90;99.90;;;;;;10163511;28;20116;-68
2023/12/15 03:23:34;;;;;;;6.07;2.83;;;9.00;99.90;;;;;;10144553;28;20040;-67
2023/12/15 03:28:24;;;;;;;8.05;3.38;;;8.90;99.90;;;;;;10160277;28;20047;-68
2023/12/15 03:33:15;;;;;;;3.67;3.10;;;9.00;99.90;;;;;;10163798;28;20031;-67
2023/12/15 03:38:06;;;;;;;6.68;2.67;;;9.00;99.90;;;;;;10166337;28;20024;-67
2023/12/15 03:42:56;;;;;;;5.25;3.10;;;8.90;99.90;;;;;;10164101;28;20493;-67
2023/12/15 03:47:47;;;;;;;4.82;2.15;;;8.90;99.90;;;;;;10168560;28;20032;-69
2023/12/15 03:52:38;;;;;;;4.72;2.72;;;8.90;99.90;;;;;;10165366;28;20083;-68
2023/12/15 03:57:28;;;;;;;4.75;2.72;;;8.90;99.90;;;;;;10161314;28;20028;-68
2023/12/15 04:02:20;;;;;;;9.07;3.42;;;8.80;99.90;;;;;;10158035;28;20044;-68
2023/12/15 04:07:11;;;;;;;4.35;2.33;;;8.90;99.90;;;;;;10160393;28;20024;-69
2023/12/15 04:12:03;;;;;;;5.85;2.58;;;8.80;99.90;;;;;;10169163;28;20477;-67
2023/12/15 04:16:53;;;;;;;5.00;2.65;;;8.80;99.90;;;;;;10159495;28;20109;-68
2023/12/15 04:21:44;;;;;;;5.03;2.33;;;8.80;99.90;;;;;;10161572;28;20048;-68
2023/12/15 04:26:35;;;;;;;5.25;3.05;;;8.70;99.90;;;;;;10157879;28;20098;-68
2023/12/15 04:31:25;;;;;;;5.55;2.83;;;8.70;99.90;;;;;;10157174;28;20017;-69
2023/12/15 04:36:20;;;;;;;5.45;2.70;;;8.70;99.90;;;;;;10165107;28;20081;-68
2023/12/15 04:41:24;;;;;;;5.68;2.95;;;8.60;99.90;;;;;;10169424;28;20028;-67
2023/12/15 04:46:30;;;;;;;3.55;2.60;;;8.60;99.90;;;;;;10160410;28;20044;-68
2023/12/15 04:51:21;;;;;;;4.97;2.58;;;8.70;99.90;;;;;;10161436;28;20517;-69
2023/12/15 04:56:12;;;;;;;5.07;2.90;;;8.70;99.90;;;;;;10168006;28;20196;-68
2023/12/15 05:01:03;;;;;;;6.35;2.90;;;8.70;99.90;;;;;;10164134;28;20517;-70
2023/12/15 05:05:53;;;;;;;4.00;2.78;;;8.70;99.90;;;;;;10167222;28;20042;-69
2023/12/15 05:10:44;;;;;;;6.93;2.90;;;8.70;99.90;;;;;;10168302;28;20088;-69
2023/12/15 05:15:35;;;;;;;7.80;3.60;;;8.70;99.90;;;;;;10166532;28;20028;-70
2023/12/15 05:20:25;;;;;;;4.88;2.70;;;8.70;99.90;;;;;;10167707;28;20511;-68
2023/12/15 05:25:16;;;;;;;7.03;3.08;;;8.70;99.90;;;;;;10167019;28;20044;-70
2023/12/15 05:30:07;;;;;;;5.47;2.67;;;8.70;99.90;;;;;;10165018;28;20085;-70
2023/12/15 05:34:58;;;;;;;5.78;3.15;;;8.70;99.90;;;;;;10164982;28;20027;-69
2023/12/15 05:39:48;;;;;;;5.22;3.33;;;8.70;99.90;;;;;;10165170;28;20040;-67
2023/12/15 05:44:40;;;;;;;6.55;3.05;;;8.60;99.90;;;;;;10165520;28;20043;-67
2023/12/15 05:49:30;;;;;;;5.95;2.80;;;8.70;99.90;;;;;;10165617;28;20029;-67
2023/12/15 05:54:21;;;;;;;6.13;2.97;;;8.60;99.90;;;;;;10164765;28;20488;-69
2023/12/15 05:59:12;;;;;;;6.30;3.47;;;8.60;99.90;;;;;;10161417;28;20031;-67
2023/12/15 06:04:03;;;;;;;5.97;2.72;;;8.50;99.90;;;;;;10162639;28;20122;-68
2023/12/15 06:08:53;;;;;;;5.57;2.90;;;8.50;99.90;;;;;;10165179;28;20024;-68
2023/12/15 06:13:44;;;;;;;5.72;3.78;;;8.50;99.90;;;;;;10162936;28;20040;-68
2023/12/15 06:18:34;;;;;;;6.63;2.97;;;8.50;99.90;;;;;;10166343;28;20544;-68
2023/12/15 06:23:25;;;;;;;4.57;3.30;;;8.50;99.90;;;;;;10165659;28;20042;-67
2023/12/15 06:28:16;;;;;;;4.15;3.20;;;8.50;99.90;;;;;;10161513;28;20097;-67
2023/12/15 06:33:07;;;;;;;6.53;3.97;;;8.50;99.90;;;;;;10168237;28;20043;-69
2023/12/15 06:37:58;;;;;;;5.25;3.70;;;8.50;99.90;;;;;;10163291;28;20545;-67
2023/12/15 06:42:48;;;;;;;9.02;4.05;;;8.60;99.90;;;;;;10167528;28;20173;-70
2023/12/15 06:47:39;;;;;;;6.05;4.18;;;8.50;99.90;;;;;;10163706;28;20524;-67
2023/12/15 06:52:30;;;;;;;9.57;4.63;;;8.50;99.90;;;;;;10159441;28;20130;-70
2023/12/15 06:57:20;;;;;;;7.15;3.35;;;8.50;99.90;;;;;;10161909;28;20023;-69
2023/12/15 07:02:11;;;;;;;5.75;3.38;;;8.60;99.90;;;;;;10164234;28;20397;-69
2023/12/15 07:07:02;;;;;;;7.03;3.92;;;8.50;99.90;;;;;;10164018;28;20111;-69
2023/12/15 07:11:54;;;;;;;8.20;4.47;;;8.50;99.90;;;;;;10166695;28;20161;-69
2023/12/15 07:16:44;;;;;;;7.55;3.60;;;8.50;99.90;;;;;;10156360;28;20020;-69
2023/12/15 07:21:35;;;;;;;5.88;3.45;;;8.60;99.90;;;;;;10158760;28;20035;-67
2023/12/15 07:26:26;;;;;;;7.60;4.13;;;8.60;99.90;;;;;;10161392;28;20040;-69
2023/12/15 07:31:16;;;;;;;5.85;3.67;;;8.50;99.90;;;;;;10157677;28;20032;-69
2023/12/15 07:36:08;;;;;;;5.18;3.95;;;8.50;99.90;;;;;;10168008;28;20508;-68
2023/12/15 07:40:59;;;;;;;5.55;3.17;;;8.50;99.90;;;;;;10168070;28;20437;-68
2023/12/15 07:45:49;;;;;;;6.82;3.53;;;8.50;99.90;;;;;;10158466;28;20028;-70
2023/12/15 07:50:40;;;;;;;8.95;4.00;;;8.40;99.90;;;;;;10157812;28;20040;-70
2023/12/15 07:55:31;;;;;;;6.82;3.67;;;8.50;99.90;;;;;;10138912;28;20039;-71
2023/12/15 08:00:22;;;;;;;7.68;3.67;;;8.40;99.90;;;;;;10158685;28;20513;-71
2023/12/15 08:05:13;;;;;;;6.28;3.38;;;8.50;99.90;;;;;;10153780;28;20126;-69
2023/12/15 08:10:04;;;;;;;5.53;3.28;;;8.50;99.90;;;;;;10162245;28;20417;-70
2023/12/15 08:14:55;;;;;;;4.55;2.80;;;8.50;99.90;;;;;;10167542;28;20056;-69
2023/12/15 08:19:45;;;;;;;7.25;3.78;;;8.50;99.90;;;;;;10170766;28;20059;-70
2023/12/15 08:24:36;;;;;;;5.60;2.85;;;8.60;99.90;;;;;;10160789;28;20097;-69
2023/12/15 08:29:27;;;;;;;6.75;3.25;;;8.50;99.90;;;;;;10166789;28;20040;-70
2023/12/15 08:34:17;;;;;;;3.97;2.42;;;8.50;99.90;;;;;;10161367;28;20032;-70
2023/12/15 08:39:08;;;;;;;5.57;2.95;;;8.50;99.90;;;;;;10158170;28;20049;-70
2023/12/15 08:43:58;;;;;;;7.32;3.25;;;8.50;99.90;;;;;;10159110;28;20501;-69
2023/12/15 08:48:49;;;;;;;5.28;3.08;;;8.50;99.90;;;;;;10160630;28;20103;-68
2023/12/15 08:53:40;;;;;;;7.53;3.30;;;8.50;99.90;;;;;;10161951;28;20143;-68
2023/12/15 08:58:31;;;;;;;4.35;2.83;;;8.60;99.90;;;;;;10158864;28;20377;-69
2023/12/15 09:03:22;;;;;;;6.07;2.70;;;8.70;99.90;;;;;;10161136;28;20040;-68
2023/12/15 09:08:12;;;;;;;7.18;3.25;;;8.70;99.90;;;;;;10161925;28;20012;-69
2023/12/15 09:13:03;;;;;;;4.80;2.95;;;8.80;99.90;;;;;;10159797;28;20035;-69
2023/12/15 09:17:54;;;;;;;5.72;3.15;;;8.80;99.90;;;;;;10139979;28;20583;-70
2023/12/15 09:22:45;;;;;;;6.05;3.88;;;8.80;99.90;;;;;;10139976;28;20123;-68
2023/12/15 09:27:35;;;;;;;6.07;2.28;;;9.00;99.90;;;;;;10161115;28;20094;-69
2023/12/15 09:32:26;;;;;;;5.47;2.92;;;9.00;99.90;;;;;;10160155;28;20032;-69
2023/12/15 09:37:17;;;;;;;5.18;2.72;;;9.10;99.90;;;;;;10154616;28;20055;-70
2023/12/15 09:42:07;;;;;;;7.75;3.00;;;9.00;99.90;;;;;;10156176;28;20105;-71
2023/12/15 09:46:58;;;;;;;6.32;3.28;;;9.10;99.90;;;;;;10158764;28;20866;-69
2023/12/15 09:51:49;;;;;;;4.32;2.03;;;9.20;99.90;;;;;;10160456;28;20043;-69
2023/12/15 09:56:41;;;;;;;5.72;3.17;;;9.20;99.90;;;;;;10158824;28;20028;-71
2023/12/15 10:01:31;;;;;;;7.53;2.53;;;9.20;99.90;;;;;;10160075;28;20050;-70
2023/12/15 10:06:22;;;;;;;5.43;2.60;;;9.20;99.90;;;;;;10143530;28;20031;-69
2023/12/15 10:11:15;;;;;;;3.45;2.47;;;9.20;99.90;;;;;;10157612;28;20027;-69
2023/12/15 10:16:08;;;;;;;4.90;2.97;;;9.20;99.90;;;;;;10163948;28;20028;-71
2023/12/15 10:20:59;;;;;;;6.22;2.40;;;9.20;99.90;;;;;;10163641;28;20078;-70
2023/12/15 10:25:53;;;;;;;4.38;1.88;;;9.40;99.90;;;;;;10146484;28;20570;-73
2023/12/15 10:30:44;;;;;;;4.15;2.00;;;9.40;99.90;;;;;;10163961;28;20115;-69
2023/12/15 10:35:37;;;;;;;3.75;2.15;;;9.50;99.90;;;;;;10159381;28;20436;-68
2023/12/15 10:40:28;;;;;;;3.60;1.80;;;9.50;99.90;;;;;;10164752;28;20081;-69
2023/12/15 10:45:20;;;;;;;4.25;2.55;;;9.40;99.90;;;;;;10161362;28;20744;-70
2023/12/15 10:50:10;;;;;;;4.35;2.38;;;9.50;99.90;;;;;;10160766;28;20069;-69
2023/12/15 10:55:06;;;;;;;4.22;2.00;;;9.60;99.90;;;;;;10162750;28;20078;-69
2023/12/15 10:59:57;;;;;;;3.80;1.80;;;9.60;99.90;;;;;;10145549;28;20052;-69
2023/12/15 11:04:48;;;;;;;5.35;2.42;;;9.60;99.90;;;;;;10162686;28;20082;-68
2023/12/15 11:09:39;;;;;;;3.45;2.25;;;9.60;99.90;;;;;;10161742;28;20028;-68
2023/12/15 11:14:33;;;;;;;2.35;1.58;;;9.50;99.90;;;;;;10166672;28;20031;-69
2023/12/15 11:19:24;;;;;;;3.28;1.85;;;9.50;99.90;;;;;;10145243;28;20032;-68
2023/12/15 11:24:15;;;;;;;2.53;1.73;;;9.60;99.90;;;;;;10160020;28;20115;-69
2023/12/15 11:29:15;;;;;;;2.38;1.77;;;9.70;99.90;;;;;;10162197;28;20119;-70
2023/12/15 11:34:06;;;;;;;4.57;2.08;;;9.70;99.90;;;;;;10158212;28;20024;-69
2023/12/15 11:39:00;;;;;;;3.97;1.83;;;9.70;99.90;;;;;;10162832;28;20035;-70
2023/12/15 11:43:51;;;;;;;2.60;1.80;;;9.70;99.90;;;;;;10156154;28;20097;-69
2023/12/15 11:48:42;;;;;;;4.68;2.00;;;9.80;99.90;;;;;;10167174;28;20032;-69
2023/12/15 11:53:32;;;;;;;3.47;2.13;;;9.80;99.90;;;;;;10178277;28;20098;-73
2023/12/15 11:58:23;;;;;;;4.65;2.45;;;9.70;99.90;;;;;;10151495;28;20025;-71
2023/12/15 12:03:19;;;;;;;4.45;2.90;;;9.80;99.90;;;;;;10162872;28;20068;-70
2023/12/15 12:08:10;;;;;;;6.13;2.67;;;9.70;99.90;;;;;;10147683;28;20024;-71
2023/12/15 12:13:02;;;;;;;4.75;3.20;;;9.80;99.90;;;;;;10141092;28;20823;-70
2023/12/15 12:17:53;;;;;;;6.95;2.85;;;9.80;99.90;;;;;;10161918;28;20024;-70
2023/12/15 12:22:45;;;;;;;5.13;2.95;;;9.80;99.90;;;;;;10164142;28;20118;-72
2023/12/15 12:27:36;;;;;;;5.35;2.85;;;9.90;99.90;;;;;;10166872;28;20139;-73
2023/12/15 12:32:28;;;;;;;7.53;3.53;;;9.80;99.90;;;;;;10161413;28;20024;-73
2023/12/15 12:37:19;;;;;;;6.95;3.55;;;9.80;99.90;;;;;;10174812;28;20088;-72
2023/12/15 12:42:09;;;;;;;5.45;3.38;;;9.80;99.90;;;;;;10175116;28;20047;-72
2023/12/15 12:47:01;;;;;;;7.65;4.47;;;9.80;99.90;;;;;;10174958;28;20020;-73
2023/12/15 12:51:52;;;;;;;4.93;2.83;;;9.80;99.90;;;;;;10174743;28;20038;-73
2023/12/15 12:56:42;;;;;;;4.35;2.30;;;9.70;99.90;;;;;;10173598;28;20028;-73
2023/12/15 13:01:33;;;;;;;4.65;2.55;;;9.70;99.90;;;;;;10176834;28;20085;-72
2023/12/15 13:06:24;;;;;;;5.60;3.25;;;9.70;99.90;;;;;;10170096;28;20738;-72
2023/12/15 13:11:15;;;;;;;5.32;2.45;;;9.60;99.90;;;;;;10177994;28;20027;-74
2023/12/15 13:16:06;;;;;;;4.32;2.60;;;9.70;99.90;;;;;;10175657;28;20036;-72
2023/12/15 13:20:57;;;;;;;5.55;2.50;;;9.70;99.90;;;;;;10176564;28;20048;-72
2023/12/15 13:25:48;;;;;;;4.78;2.58;;;9.70;99.90;;;;;;10171304;28;20036;-72
2023/12/15 13:30:38;;;;;;;4.95;2.45;;;9.70;99.90;;;;;;10171637;28;20032;-72
2023/12/15 13:35:29;;;;;;;5.78;2.78;;;9.80;99.90;;;;;;10173824;28;20021;-73
2023/12/15 13:40:20;;;;;;;5.55;3.63;;;9.70;99.90;;;;;;10177872;28;20525;-72
2023/12/15 13:45:11;;;;;;;8.82;3.00;;;9.80;99.90;;;;;;10181516;28;20031;-72
2023/12/15 13:50:02;;;;;;;3.53;2.55;;;9.90;99.90;;;;;;10180243;28;20032;-72
2023/12/15 13:54:52;;;;;;;7.97;3.55;;;9.90;99.90;;;;;;10172039;28;20060;-72
2023/12/15 13:59:43;;;;;;;4.55;3.13;;;9.90;99.90;;;;;;10170959;28;20075;-72
2023/12/15 14:04:34;;;;;;;5.82;3.60;;;9.90;99.90;;;;;;10177438;28;20043;-72
2023/12/15 14:09:27;;;;;;;7.45;3.17;;;9.80;99.90;;;;;;10178948;28;20032;-73
2023/12/15 14:14:17;;;;;;;6.85;3.15;;;9.70;99.90;;;;;;10170471;28;20024;-73
2023/12/15 14:19:08;;;;;;;6.28;3.35;;;9.80;99.90;;;;;;10179075;28;20028;-71
2023/12/15 14:23:59;;;;;;;3.78;2.30;;;9.80;99.90;;;;;;10178351;28;20691;-71
2023/12/15 14:28:49;;;;;;;5.32;2.67;;;9.80;99.90;;;;;;10150532;28;20044;-73
2023/12/15 14:33:40;;;;;;;6.20;2.80;;;9.80;99.90;;;;;;10143285;28;20039;-72
2023/12/15 14:38:32;;;;;;;5.72;2.95;;;9.80;99.90;;;;;;10174070;28;20036;-72
2023/12/15 14:43:23;;;;;;;5.35;2.80;;;9.90;99.90;;;;;;10172813;28;20503;-72
2023/12/15 14:48:14;;;;;;;6.85;3.03;;;9.90;99.90;;;;;;10151936;28;20119;-72
2023/12/15 14:53:05;;;;;;;4.63;2.72;;;9.90;99.90;;;;;;10158379;28;20031;-69
2023/12/15 14:57:55;;;;;;;10.35;3.10;;;9.90;99.90;;;;;;10177406;28;20092;-69
2023/12/15 15:02:46;;;;;;;5.05;3.22;;;9.90;99.90;;;;;;10147811;28;20040;-72
2023/12/15 15:07:37;;;;;;;5.28;2.35;;;9.90;99.90;;;;;;10162225;28;20032;-71
2023/12/15 15:12:28;;;;;;;4.82;2.85;;;9.90;99.90;;;;;;10169524;28;20102;-70
2023/12/15 15:17:18;;;;;;;8.32;2.92;;;9.90;99.90;;;;;;10171663;28;20024;-72
2023/12/15 15:22:09;;;;;;;6.63;2.97;;;9.90;99.90;;;;;;10164581;28;20070;-71
2023/12/15 15:27:00;;;;;;;4.80;3.15;;;9.90;99.90;;;;;;10155771;28;20090;-70
2023/12/15 15:31:50;;;;;;;5.88;3.03;;;9.90;99.90;;;;;;10172385;28;20542;-70
2023/12/15 15:36:41;;;;;;;5.40;3.05;;;9.90;99.90;;;;;;10166791;28;20105;-72
2023/12/15 15:41:31;;;;;;;5.07;2.72;;;9.90;99.90;;;;;;10174952;28;20042;-71
2023/12/15 15:46:22;;;;;;;5.68;3.08;;;9.90;99.90;;;;;;10170624;28;20039;-70
2023/12/15 15:51:23;;;;;;;5.78;3.13;;;9.80;99.90;;;;;;10172276;28;20030;-71
2023/12/15 15:56:14;;;;;;;6.43;2.88;;;9.90;99.90;;;;;;10171077;28;20032;-70
2023/12/15 16:01:05;;;;;;;4.63;2.92;;;9.80;99.90;;;;;;10168724;28;20028;-72
2023/12/15 16:05:55;;;;;;;5.95;2.80;;;9.80;99.90;;;;;;10173064;28;20023;-70
2023/12/15 16:10:46;;;;;;;5.25;2.38;;;9.80;99.90;;;;;;10158046;28;20028;-70
2023/12/15 16:15:37;;;;;;;4.53;2.10;;;9.80;99.90;;;;;;10175358;28;20059;-71
2023/12/15 16:20:28;;;;;;;4.53;2.60;;;9.80;99.90;;;;;;10173229;28;20027;-78
2023/12/15 16:25:18;;;;;;;3.05;2.20;;;9.80;99.90;;;;;;10155565;28;20056;-71
2023/12/15 16:30:10;;;;;;;3.20;2.08;;;9.80;99.90;;;;;;10173915;28;20040;-69
2023/12/15 16:35:01;;;;;;;5.13;2.60;;;9.80;99.90;;;;;;10158894;28;20066;-72
2023/12/15 16:39:54;;;;;;;4.55;2.20;;;9.80;99.90;;;;;;10179727;28;20111;-74
2023/12/15 16:44:48;;;;;;;4.18;2.85;;;9.90;99.90;;;;;;10169427;28;20067;-72
2023/12/15 16:49:42;;;;;;;5.00;2.90;;;9.90;99.90;;;;;;10177380;28;20125;-76
2023/12/15 16:54:33;;;;;;;6.03;2.53;;;9.80;99.90;;;;;;10177786;28;20487;-70
2023/12/15 16:59:23;;;;;;;4.80;2.92;;;9.90;99.90;;;;;;10177542;28;20020;-75
2023/12/15 17:04:14;;;;;;;5.85;3.00;;;9.80;99.90;;;;;;10178247;28;20044;-67
2023/12/15 17:09:05;;;;;;;6.07;3.65;;;9.90;99.90;;;;;;10177718;28;20032;-68
2023/12/15 17:13:55;;;;;;;8.18;3.55;;;9.90;99.90;;;;;;10173535;28;20020;-66
2023/12/15 17:18:46;;;;;;;6.22;3.47;;;9.80;99.90;;;;;;10185321;28;20031;-67
2023/12/15 17:23:37;;;;;;;5.05;3.28;;;9.80;99.90;;;;;;10178180;28;20036;-65
2023/12/15 17:28:28;;;;;;;6.18;3.25;;;9.80;99.90;;;;;;10163387;28;20048;-65
2023/12/15 17:33:18;;;;;;;8.07;3.42;;;9.80;99.90;;;;;;10181420;28;20524;-67
2023/12/15 17:38:09;;;;;;;4.72;3.35;;;9.80;99.90;;;;;;10181037;28;20032;-67
2023/12/15 17:43:00;;;;;;;5.22;3.03;;;9.80;99.90;;;;;;10162879;28;20112;-67
2023/12/15 17:47:50;;;;;;;7.03;3.40;;;9.70;99.90;;;;;;10177857;28;20039;-66
2023/12/15 17:52:42;;;;;;;7.35;3.75;;;9.70;99.90;;;;;;10178227;28;20122;-66
2023/12/15 17:57:32;;;;;;;7.68;3.83;;;9.80;99.90;;;;;;10178213;28;20024;-67
2023/12/15 18:02:25;;;;;;;7.20;3.15;;;9.80;99.90;;;;;;10183085;28;20044;-68
2023/12/15 18:07:19;;;;;;;7.78;4.05;;;9.80;99.90;;;;;;10179441;28;20016;-67
2023/12/15 18:12:09;;;;;;;8.63;3.85;;;9.80;99.90;;;;;;10175455;28;20040;-67
2023/12/15 18:17:00;;;;;;;6.88;3.60;;;9.80;99.90;;;;;;10175380;28;20031;-67
2023/12/15 18:21:51;;;;;;;6.18;3.47;;;9.80;99.90;;;;;;10179066;28;20574;-68
2023/12/15 18:26:41;;;;;;;6.50;3.45;;;9.80;99.90;;;;;;10179475;28;20066;-67
2023/12/15 18:31:32;;;;;;;8.70;4.72;;;9.80;99.90;;;;;;10148467;28;20466;-67
2023/12/15 18:36:23;;;;;;;7.90;4.40;;;9.80;99.90;;;;;;10168346;28;20077;-67
2023/12/15 18:41:15;;;;;;;8.68;3.97;;;9.80;99.90;;;;;;10169196;28;20027;-67
2023/12/15 18:46:08;;;;;;;7.18;4.45;;;9.80;99.90;;;;;;10170873;28;20040;-67
2023/12/15 18:50:59;;;;;;;11.98;4.30;;;9.70;99.90;;;;;;10171326;28;20036;-68
2023/12/15 18:55:49;;;;;;;9.63;3.70;;;9.70;99.90;;;;;;10171819;28;20036;-67
2023/12/15 19:00:42;;;;;;;6.50;3.63;;;9.80;99.90;;;;;;10172652;28;20036;-68
2023/12/15 19:05:33;;;;;;;9.60;4.75;;;9.70;99.90;;;;;;10164996;28;20055;-66
2023/12/15 19:10:24;;;;;;;7.15;3.45;;;9.80;99.90;;;;;;10177478;28;20112;-66
2023/12/15 19:15:15;;;;;;;5.43;3.35;;;9.80;99.90;;;;;;10176603;28;20122;-66
2023/12/15 19:20:07;;;;;;;4.68;3.22;;;9.80;99.90;;;;;;10171487;28;20031;-66
2023/12/15 19:24:58;;;;;;;8.50;3.58;;;9.80;99.90;;;;;;10175372;28;20044;-66
2023/12/15 19:29:51;;;;;;;6.35;2.65;;;9.80;99.90;;;;;;10176005;28;20104;-66
2023/12/15 19:34:42;;;;;;;5.07;3.40;;;9.80;99.90;;;;;;10164472;28;20093;-66
2023/12/15 19:39:32;;;;;;;5.70;3.38;;;9.80;99.90;;;;;;10176726;28;20061;-66
2023/12/15 19:44:23;;;;;;;7.45;4.47;;;9.80;99.90;;;;;;10168231;28;20059;-66
2023/12/15 19:49:13;;;;;;;8.75;4.05;;;9.80;99.90;;;;;;10168576;28;20116;-67
2023/12/15 19:54:04;;;;;;;7.20;4.30;;;9.80;99.90;;;;;;10171113;28;20036;-67
2023/12/15 19:58:59;;;;;;;7.50;3.78;;;9.80;99.90;;;;;;10157478;28;20089;-67
2023/12/15 20:03:50;;;;;;;7.28;4.50;;;9.70;99.90;;;;;;10169461;28;20047;-66
2023/12/15 20:08:41;;;;;;;8.65;4.60;;;9.80;99.90;;;;;;10155745;28;20024;-67
2023/12/15 20:13:32;;;;;;;10.65;4.50;;;9.70;99.90;;;;;;10181755;28;20024;-66
2023/12/15 20:18:22;;;;;;;9.20;4.95;;;9.70;99.90;;;;;;10182892;28;20035;-67
2023/12/15 20:23:13;;;;;;;11.50;5.15;;;9.70;99.90;;;;;;10184847;28;20097;-67
2023/12/15 20:28:09;;;;;;;7.40;4.47;;;9.70;99.90;;;;;;10183217;28;20044;-67
2023/12/15 20:32:59;;;;;;;6.93;4.80;;;9.70;99.90;;;;;;10183396;28;20059;-67
2023/12/15 20:37:50;;;;;;;8.13;3.65;;;9.70;99.90;;;;;;10183061;28;20032;-67
2023/12/15 20:42:40;;;;;;;7.82;4.00;;;9.70;99.90;;;;;;10181214;28;20118;-68
2023/12/15 20:47:31;;;;;;;6.78;3.72;;;9.70;99.90;;;;;;10187082;28;20026;-67
2023/12/15 20:52:22;;;;;;;7.78;4.03;;;9.80;99.90;;;;;;10184863;28;20030;-67
2023/12/15 20:57:12;;;;;;;11.68;4.50;;;9.80;99.90;;;;;;10177811;28;20090;-67
2023/12/15 21:02:03;;;;;;;6.90;3.92;;;9.70;99.90;;;;;;10176182;28;20594;-67
2023/12/15 21:06:54;;;;;;;6.88;4.32;;;9.80;99.90;;;;;;10170599;28;20035;-66
2023/12/15 21:11:46;;;;;;;6.45;3.67;;;9.80;99.90;;;;;;10167721;28;20043;-66
2023/12/15 21:16:39;;;;;;;9.27;4.10;;;9.80;99.90;;;;;;10173209;28;20847;-67
2023/12/15 21:21:31;;;;;;;9.25;4.82;;;9.80;99.90;;;;;;10178266;28;20109;-66
2023/12/15 21:26:22;;;;;;;6.90;3.67;;;9.80;99.90;;;;;;10175742;28;20624;-67
2023/12/15 21:31:12;;;;;;;8.45;4.55;;;9.80;99.90;;;;;;10148939;28;20115;-67
2023/12/15 21:36:04;;;;;;;7.72;4.20;;;9.80;99.90;;;;;;10164260;28;20554;-66
2023/12/15 21:40:55;;;;;;;10.02;5.25;;;9.80;99.90;;;;;;10176583;28;20031;-66
2023/12/15 21:45:45;;;;;;;7.15;4.28;;;9.70;99.90;;;;;;10176519;28;20113;-66
2023/12/15 21:50:36;;;;;;;8.68;4.88;;;9.70;99.90;;;;;;10179067;28;20036;-67
2023/12/15 21:55:27;;;;;;;8.43;4.38;;;9.70;99.90;;;;;;10177394;28;20040;-66
2023/12/15 22:00:18;;;;;;;6.50;3.85;;;9.80;99.90;;;;;;10176910;28;20028;-66
2023/12/15 22:05:09;;;;;;;7.78;4.90;;;9.80;99.90;;;;;;10177417;28;20420;-66
2023/12/15 22:09:59;;;;;;;8.23;4.78;;;9.60;99.90;;;;;;10161422;28;20141;-67
2023/12/15 22:14:50;;;;;;;6.57;5.10;;;9.70;99.90;;;;;;10175756;28;20040;-67
2023/12/15 22:19:41;;;;;;;8.30;3.97;;;9.70;99.90;;;;;;10171661;28;20136;-67
2023/12/15 22:24:32;;;;;;;8.15;4.55;;;9.70;99.90;;;;;;10173182;28;20085;-67
2023/12/15 22:29:22;;;;;;;7.03;5.10;;;9.60;99.90;;;;;;10175097;28;20043;-66
2023/12/15 22:34:13;;;;;;;7.07;4.72;;;9.60;99.90;;;;;;10178885;28;20453;-65
2023/12/15 22:39:06;;;;;;;9.20;4.18;;;9.60;99.90;;;;;;10174508;28;20394;-66
2023/12/15 22:43:56;;;;;;;5.80;4.25;;;9.60;99.90;;;;;;10178205;28;20988;-67
2023/12/15 22:48:47;;;;;;;5.13;3.63;;;9.50;99.90;;;;;;10158261;28;20016;-66
2023/12/15 22:53:38;;;;;;;5.55;3.42;;;9.50;99.90;;;;;;10166925;28;20031;-67
2023/12/15 22:58:28;;;;;;;9.10;5.28;;;9.40;99.90;;;;;;10166247;28;20020;-66
2023/12/15 23:03:19;;;;;;;6.82;3.90;;;9.40;99.90;;;;;;10176380;28;20147;-66
2023/12/15 23:08:10;;;;;;;6.45;4.15;;;9.50;99.90;;;;;;10177927;28;20035;-67
2023/12/15 23:13:00;;;;;;;8.50;4.38;;;9.50;99.90;;;;;;10177117;28;20544;-66
2023/12/15 23:17:51;;;;;;;7.10;4.22;;;9.40;99.90;;;;;;10177184;28;20024;-66
2023/12/15 23:22:41;;;;;;;9.68;4.65;;;9.40;99.90;;;;;;10176189;28;20048;-66
2023/12/15 23:27:32;;;;;;;7.60;4.35;;;9.40;99.90;;;;;;10176356;28;20040;-66
2023/12/15 23:32:23;;;;;;;9.35;5.63;;;9.30;99.90;;;;;;10176918;28;20081;-66
2023/12/15 23:37:13;;;;;;;9.43;5.00;;;9.40;99.90;;;;;;10177300;28;20024;-67
2023/12/15 23:42:06;;;;;;;9.70;5.50;;;9.40;99.90;;;;;;10167484;28;20039;-66
2023/12/15 23:46:57;;;;;;;6.40;4.53;;;9.40;99.90;;;;;;10170807;28;20094;-66
2023/12/15 23:51:47;;;;;;;7.75;4.55;;;9.30;99.90;;;;;;10173868;28;20069;-66
2023/12/15 23:56:38;;;;;;;9.98;5.38;;;9.30;99.90;;;;;;10173335;28;20505;-65
